Relevés horaires Bierset (Belgique)


Relevés horaires à Bierset - Mardi 05 Sept. 2023
Heure UTC1 Température [°C] Vent [km/h] Hum. [%] Pres.4 [hPa] Visi. [Km] Nébu. [octa] Préc.5 [mm] Cond.
2m. Res. Ros. Dir.2 Vit. Moy. Raf.3
23:00 21.9 21.9 12.7 S 5.6 7.4 9.3 56 1019.2(0.9/3h) 30 1/8 -- --
22:00 22.5 22.5 12.9 S 5.6 7.4 13.0 55 1018.7(0.8/3h) 30 1/8 -- --
21:00 23.9 23.9 13.2 SSE 5.6 7.4 20.4 51 1018.4(0.9/3h) 30 1/8 -- --
20:00 24.4 24.4 13.3 S 5.6 5.6 13.0 50 1018.1(0.7/3h) 30 1/8 -- --
19:00 26.0 26.0 13.8 SE 5.6 5.6 13.0 47 1017.6(0.5/3h) 30 1/8 -- --
18:00 28.3 28.3 14.1 SE 5.6 5.6 11.1 42 1017.2(0.0/3h) 30 2/8 0/12h
--
17:00 30.0 30.0 12.5 S 3.7 5.6 9.3 34 1017(-0.4/3h) 30 1/8 -- --
16:00 30.5 30.5 12.4 SE 5.6 5.6 9.3 33 1016.9(-0.9/3h) 30 2/8 -- --
15:00 30.9 30.9 15.2 SSE 3.7 5.6 11.1 39 1017(-0.9/3h) 30 2/8 -- --
14:00 30.7 30.7 13.3 SSE 3.7 3.7 11.1 35 1017.3(-0.9/3h) 30 1/8 -- --
13:00 29.7 29.7 15.1 NNO 1.9 3.7 11.1 41 1017.8(-0.5/3h) 30 1/8 -- --
12:00 29.3 29.3 13.4 SSO 1.9 11.1 20.4 38 1018.1(0.2/3h) 30 1/8 0/6h
--
11:00 28.2 28.2 12.5 S 5.6 11.1 18.5 38 1018.5(0.0/3h) 30 1/8 -- --
10:00 26.7 26.7 11.7 SE 9.3 9.3 20.4 39 1018.5(-0.4/3h) 28 1/8 -- --
09:00 24.4 24.4 12.6 ESE 5.6 5.6 13.0 48 1018.6(-0.6/3h) 25 1/8 -- --
08:00 22.5 22.5 11.8 ESE 5.6 5.6 13.0 51 1018.9(0.1/3h) 25 1/8 -- --
07:00 21.2 21.2 11.6 ESE 3.7 3.7 13.0 54 1019.3(0.0/3h) 22 1/8 -- --
06:00 17.6 17.6 11.2 ESE 3.7 5.6 9.3 66 1019.7(0.2/3h) 20 1/8 0/12h
--
05:00 16.6 16.6 11.0 SE 5.6 5.6 7.4 69 1019.4(0.1/3h) 20 1/8 -- --
04:00 17.5 17.5 9.9 E 1.9 3.7 5.6 61 1019.5(0.1/3h) 20 2/8 -- --
03:00 16.0 16.0 10.1 NE 3.7 5.6 5.6 68 1019.6(-0.2/3h) 20 2/8 -- --
02:00 17.6 17.6 9.7 NE 3.7 3.7 5.6 60 1019.5(-0.3/3h) 20 2/8 -- --
01:00 16.6 16.6 11.3 NNO 0.0 3.7 5.6 71 1019.6(0.1/3h) 20 2/8 -- --
00:00 19.5 19.5 9.1 NNO 1.9 11.1 27.8 51 1019.6(-0.2/3h) 20 2/8 0/6h
0/24h
--

1 Coordinated Universal Time. Actuellement il est 03:00 locale et 01:00 UTC.

2 Le vent souffle depuis la direction indiquée vers la direction oposée.

3 Les rafales max. sont disponible 40 min après l'heure du relevé.

4 Pour les stations d'altitude (plus de 600m) le géopotentiel du niveau le plus proche de la pression obligatoire est indiqué.

5 Les stations disposant d'un diffuseur peuvent indiquer "trace". Cela signifie que des précipitations ont touchés le sol mais que la quantité est inférieure à 0.1 mm.

Récapitulatif de la journée
Température [°C] Vent [km/h] Ensoleillement4 [h] Precipitations totale5 [mm] Pression [Hpa]
Min1 Max.2 Moy.3 Max. Min Max.
15.3 31.4 6.2 27.8 0 h 0 min 0 1016.9 1019.7

1 Température minimale relevée entre 18:00 UTC la veille et 18:00 UTC le jour donné.

2 Température maximale relevée entre 06:00 UTC le jour donné et 06:00 UTC le lendemain.

3 Vent moyen de la journée basé sur les relevés horaires.

4 Ensoleillement en heures relevé entre 06:00 UTC la veille et 06:00 UTC le jour donné.

5 Précipitations totales tombées entre 06:00 UTC la jour donné et 06:00 UTC le lendemain.

Graphiques horaires